Time;durP1;ratioP1;P1;durP2;ratioP2;P2;SDS_P1;SDS_P2;PMS_P1;PMS_P2;Temp;Humidity;BMP_temperature;BMP_pressure;BME280_temperature;BME280_humidity;BME280_pressure;Samples;Min_cycle;Max_cycle;Signal;HPM_P1;HPM_P2
2021/12/04 00:00:09;;;;;;;;;;;;;;;26.85;61.24;101317.59;5078809;27;70413;-43
2021/12/04 00:02:42;;;;;;;;;;;;;;;26.87;61.34;101314.72;5081734;27;65185;-44
2021/12/04 00:05:12;;;;;;;;;;;;;;;26.91;61.30;101326.78;5080468;27;70117;-44
2021/12/04 00:07:43;;;;;;;;;;;;;;;26.93;61.12;101322.88;5079994;27;66151;-43
2021/12/04 00:10:18;;;;;;;;;;;;;;;26.95;61.23;101322.72;5081355;27;70750;-44
2021/12/04 00:12:49;;;;;;;;;;;;;;;26.99;60.80;101340.16;5079274;27;65315;-44
2021/12/04 00:15:19;;;;;;;;;;;;;;;26.99;61.02;101340.16;5080601;27;69255;-43
2021/12/04 00:17:50;;;;;;;;;;;;;;;27.01;61.23;101338.13;5080449;27;66632;-44
2021/12/04 00:20:23;;;;;;;;;;;;;;;27.00;61.08;101336.47;5078798;27;70279;-44
2021/12/04 00:22:58;;;;;;;;;;;;;;;26.99;60.20;101342.84;5080470;27;66651;-44
2021/12/04 00:25:28;;;;;;;;;;;;;;;26.85;54.98;101344.50;5080870;27;70162;-49
2021/12/04 00:27:59;;;;;;;;;;;;;;;26.59;52.68;101344.06;5079088;27;66650;-49
2021/12/04 00:30:29;;;;;;;;;;;;;;;26.39;52.26;101357.97;5082358;27;70190;-49
2021/12/04 00:33:03;;;;;;;;;;;;;;;26.23;52.46;101364.28;5081216;27;65635;-48
2021/12/04 00:36:25;;;;;;;;;;;;;;;26.12;52.66;101359.31;5080705;27;70582;-49
2021/12/04 00:49:24;;;;;;;;;;;;;;;25.77;53.67;101382.97;5077781;27;65538;-48
2021/12/04 00:51:55;;;;;;;;;;;;;;;25.70;54.27;101390.03;5078379;27;69781;-48
2021/12/04 00:54:27;;;;;;;;;;;;;;;25.62;54.15;101390.06;5077144;27;65775;-48
2021/12/04 00:56:57;;;;;;;;;;;;;;;25.62;54.68;101395.44;5077387;27;70405;-48
2021/12/04 00:59:28;;;;;;;;;;;;;;;25.61;54.64;101397.28;5081296;27;66124;-47
2021/12/04 01:01:58;;;;;;;;;;;;;;;25.61;54.59;101401.81;5080927;27;70685;-49
2021/12/04 01:04:29;;;;;;;;;;;;;;;25.60;54.66;101400.13;5079020;27;65627;-46
2021/12/04 01:07:00;;;;;;;;;;;;;;;25.59;54.40;101401.97;5079606;27;70290;-47
2021/12/04 01:09:31;;;;;;;;;;;;;;;25.55;54.25;101394.47;5080981;27;65755;-46
2021/12/04 01:12:01;;;;;;;;;;;;;;;25.56;54.59;101401.50;5079979;27;69842;-49
2021/12/04 01:14:32;;;;;;;;;;;;;;;25.56;54.25;101401.50;5073934;27;66050;-49
2021/12/04 01:17:03;;;;;;;;;;;;;;;25.58;54.62;101404.84;5076214;27;69971;-48
2021/12/04 01:19:34;;;;;;;;;;;;;;;25.61;54.83;101405.34;5075324;27;66203;-47
2021/12/04 01:22:05;;;;;;;;;;;;;;;25.65;54.69;101416.56;5079455;27;70703;-44
2021/12/04 01:24:36;;;;;;;;;;;;;;;25.83;56.50;101414.53;5059200;28;65983;-45
2021/12/04 01:27:08;;;;;;;;;;;;;;;25.84;54.76;101426.97;5079959;27;70287;-50
2021/12/04 01:29:38;;;;;;;;;;;;;;;25.81;54.40;101431.81;5081206;27;66736;-48
2021/12/04 01:32:09;;;;;;;;;;;;;;;25.75;54.17;101427.97;5079229;28;70369;-48
2021/12/04 01:34:39;;;;;;;;;;;;;;;25.74;54.14;101431.69;5079861;27;67144;-49
2021/12/04 01:37:10;;;;;;;;;;;;;;;25.73;54.40;101431.84;5076765;27;70156;-48
2021/12/04 01:39:40;;;;;;;;;;;;;;;25.72;54.23;101439.06;5077354;27;67093;-48
2021/12/04 01:42:11;;;;;;;;;;;;;;;25.70;54.91;101434.88;5062321;28;70348;-50
2021/12/04 01:44:41;;;;;;;;;;;;;;;25.84;56.30;101432.34;5078521;27;67210;-47
2021/12/04 01:47:16;;;;;;;;;;;;;;;26.05;57.00;101428.25;5075913;27;69941;-45
2021/12/04 01:49:48;;;;;;;;;;;;;;;26.18;56.23;101427.66;5079838;27;66210;-48
2021/12/04 01:52:19;;;;;;;;;;;;;;;26.15;55.34;101430.72;5076268;27;70239;-48
2021/12/04 01:54:50;;;;;;;;;;;;;;;26.15;54.95;101434.22;5087674;27;66030;-45
2021/12/04 01:57:23;;;;;;;;;;;;;;;26.20;55.11;101426.47;5074057;27;71496;-45
2021/12/04 01:59:53;;;;;;;;;;;;;;;26.34;56.36;101438.34;5079576;27;67587;-45
2021/12/04 02:02:24;;;;;;;;;;;;;;;26.45;56.94;101424.50;5078075;27;69593;-46
2021/12/04 02:04:55;;;;;;;;;;;;;;;26.55;56.15;101428.84;5080823;27;66303;-49
2021/12/04 02:07:25;;;;;;;;;;;;;;;26.51;54.32;101425.66;5077641;27;69849;-52
2021/12/04 02:09:56;;;;;;;;;;;;;;;26.39;52.37;101429.75;5078533;27;66103;-50
2021/12/04 02:12:26;;;;;;;;;;;;;;;26.31;52.66;101433.31;5079959;27;69401;-52
2021/12/04 02:14:57;;;;;;;;;;;;;;;26.32;53.07;101437.69;5077353;27;66093;-50
2021/12/04 02:17:27;;;;;;;;;;;;;;;26.35;53.41;101439.19;5077360;27;70092;-50
2021/12/04 02:19:58;;;;;;;;;;;;;;;26.42;53.68;101432.09;5079704;27;66801;-48
2021/12/04 02:22:28;;;;;;;;;;;;;;;26.43;52.05;101431.06;5078205;27;70073;-48
2021/12/04 02:24:58;;;;;;;;;;;;;;;26.50;52.19;101423.97;5080201;27;66586;-50
2021/12/04 02:27:29;;;;;;;;;;;;;;;26.47;52.01;101422.47;5078889;27;70314;-49
2021/12/04 02:29:59;;;;;;;;;;;;;;;26.46;51.44;101420.78;5073586;27;67099;-49
2021/12/04 02:32:31;;;;;;;;;;;;;;;26.50;52.39;101415.91;5073547;28;69892;-50
2021/12/04 02:35:02;;;;;;;;;;;;;;;26.56;53.15;101419.75;5071622;27;66298;-52
2021/12/04 02:37:36;;;;;;;;;;;;;;;26.67;52.61;101419.34;5075895;27;70511;-48
2021/12/04 02:40:08;;;;;;;;;;;;;;;26.70;52.32;101414.44;5078413;27;66681;-49
2021/12/04 02:42:39;;;;;;;;;;;;;;;26.71;51.87;101413.41;5077442;27;69354;-49
2021/12/04 02:45:09;;;;;;;;;;;;;;;26.81;52.67;101406.97;5080065;27;66597;-50
2021/12/04 02:47:40;;;;;;;;;;;;;;;26.89;53.21;101414.97;5079200;27;69935;-49
2021/12/04 02:50:13;;;;;;;;;;;;;;;26.95;52.41;101409.69;5076968;27;66776;-46
2021/12/04 02:52:44;;;;;;;;;;;;;;;26.99;52.22;101407.47;5074787;27;69164;-47
2021/12/04 02:55:16;;;;;;;;;;;;;;;26.96;51.39;101402.47;5079584;27;65977;-47
2021/12/04 02:57:47;;;;;;;;;;;;;;;27.02;53.12;101393.66;5077572;27;70041;-48
2021/12/04 03:00:19;;;;;;;;;;;;;;;27.09;52.88;101389.22;5078743;27;65470;-50
2021/12/04 03:02:50;;;;;;;;;;;;;;;27.08;50.21;101382.16;5079447;27;69365;-49
2021/12/04 03:05:26;;;;;;;;;;;;;;;27.01;49.58;101380.38;5077296;27;65523;-49
2021/12/04 03:07:57;;;;;;;;;;;;;;;27.02;50.28;101382.03;5079492;27;68950;-49
2021/12/04 03:10:28;;;;;;;;;;;;;;;27.07;51.51;101369.72;5079295;27;65805;-47
2021/12/04 03:12:58;;;;;;;;;;;;;;;27.09;52.33;101373.06;5078524;27;69828;-48
2021/12/04 03:15:28;;;;;;;;;;;;;;;27.11;52.65;101373.72;5076237;27;66647;-47
2021/12/04 03:17:59;;;;;;;;;;;;;;;27.12;53.36;101371.88;5061799;28;70403;-47
2021/12/04 03:20:29;;;;;;;;;;;;;;;27.15;54.53;101372.31;5079071;27;65941;-51
2021/12/04 03:23:01;;;;;;;;;;;;;;;27.17;53.54;101374.88;5075234;27;70137;-51
2021/12/04 03:25:32;;;;;;;;;;;;;;;27.16;54.04;101357.88;5077424;27;66404;-49
2021/12/04 03:28:05;;;;;;;;;;;;;;;27.18;53.24;101355.00;5077098;27;69823;-47
2021/12/04 03:30:43;;;;;;;;;;;;;;;27.15;54.48;101348.09;5083473;28;66893;-48
2021/12/04 03:41:23;;;;;;;;;;;;;;;27.35;53.59;101326.03;5081216;27;66289;-50
2021/12/04 03:43:54;;;;;;;;;;;;;;;27.38;53.42;101317.56;5081330;27;69931;-48
2021/12/04 03:46:25;;;;;;;;;;;;;;;27.39;53.11;101316.56;5082158;27;66046;-49
2021/12/04 03:48:56;;;;;;;;;;;;;;;27.39;53.86;101313.88;5081987;27;69522;-51
2021/12/04 03:51:27;;;;;;;;;;;;;;;27.39;54.75;101301.22;5060766;28;65000;-49
2021/12/04 03:53:58;;;;;;;;;;;;;;;27.41;54.58;101298.34;5071074;27;69926;-48
2021/12/04 03:56:29;;;;;;;;;;;;;;;27.43;54.64;101299.00;5081339;27;67032;-50
2021/12/04 03:59:00;;;;;;;;;;;;;;;27.44;55.08;101295.25;5060455;27;69366;-48
2021/12/04 04:01:30;;;;;;;;;;;;;;;27.46;55.25;101290.53;5080603;27;66882;-50
2021/12/04 04:04:01;;;;;;;;;;;;;;;27.48;55.54;101291.19;5077625;27;70028;-49
2021/12/04 04:06:33;;;;;;;;;;;;;;;27.51;55.96;101290.81;5043979;28;65041;-50
2021/12/04 04:09:04;;;;;;;;;;;;;;;27.53;56.00;101288.78;5079995;27;69536;-49
2021/12/04 04:11:36;;;;;;;;;;;;;;;27.58;56.71;101280.09;5080732;27;67394;-48
2021/12/04 04:14:07;;;;;;;;;;;;;;;27.60;55.91;101278.91;5085834;27;70572;-50
2021/12/04 04:16:39;;;;;;;;;;;;;;;27.58;55.18;101272.88;5081859;27;65872;-49
2021/12/04 04:19:10;;;;;;;;;;;;;;;27.62;55.43;101276.84;5077181;27;70025;-50
2021/12/04 04:21:44;;;;;;;;;;;;;;;27.66;55.51;101266.53;5071313;27;66278;-48
2021/12/04 04:24:16;;;;;;;;;;;;;;;27.69;55.13;101274.22;5070340;27;69973;-49
2021/12/04 04:26:46;;;;;;;;;;;;;;;27.68;54.79;101266.34;5076336;27;65757;-50
2021/12/04 04:29:16;;;;;;;;;;;;;;;27.71;54.68;101256.00;5076401;27;70202;-49
2021/12/04 04:31:48;;;;;;;;;;;;;;;27.73;53.14;101255.84;5077067;27;66363;-49
2021/12/04 04:34:25;;;;;;;;;;;;;;;27.77;53.24;101251.72;5074839;27;70523;-50
2021/12/04 05:01:53;;;;;;;;;;;;;;;28.15;53.18;101186.78;5078312;27;70575;-50
2021/12/04 05:10:50;;;;;;;;;;;;;;;28.28;52.87;101168.84;5057533;28;66519;-49
2021/12/04 05:13:18;;;;;;;;;;;;;;;28.29;53.07;101175.09;5081041;27;70341;-50
2021/12/04 05:18:35;;;;;;;;;;;;;;;28.31;53.56;101150.63;5062488;28;69101;-49
2021/12/04 05:21:07;;;;;;;;;;;;;;;28.33;53.81;101146.66;5082183;27;66370;-44
2021/12/04 05:23:43;;;;;;;;;;;;;;;28.39;54.76;101135.13;5074619;27;69137;-44
2021/12/04 05:26:31;;;;;;;;;;;;;;;28.43;54.77;101130.19;5078091;27;65931;-45
2021/12/04 05:29:01;;;;;;;;;;;;;;;28.47;55.04;101123.34;5079882;27;70362;-46
2021/12/04 05:31:32;;;;;;;;;;;;;;;28.49;55.38;101129.38;5075436;27;65663;-42
2021/12/04 05:34:02;;;;;;;;;;;;;;;28.43;53.80;101128.31;5077634;27;70600;-42
2021/12/04 05:36:34;;;;;;;;;;;;;;;28.24;52.13;101124.41;5078574;27;65630;-43
2021/12/04 05:39:05;;;;;;;;;;;;;;;28.16;52.05;101111.06;5078827;28;70620;-43
2021/12/04 05:41:36;;;;;;;;;;;;;;;28.20;52.24;101095.34;5076745;27;67204;-42
2021/12/04 05:44:08;;;;;;;;;;;;;;;28.29;52.92;101099.53;5075198;28;70820;-44
2021/12/04 05:46:43;;;;;;;;;;;;;;;28.33;53.96;101099.97;5075101;27;65704;-43
2021/12/04 05:49:25;;;;;;;;;;;;;;;28.36;54.23;101099.56;5080165;27;69669;-43
2021/12/04 05:52:09;;;;;;;;;;;;;;;28.41;54.37;101081.75;5080086;27;66618;-44
2021/12/04 05:57:12;;;;;;;;;;;;;;;28.46;54.78;101068.53;5077050;27;66190;-43
2021/12/04 05:59:42;;;;;;;;;;;;;;;28.47;55.32;101059.44;5078892;27;70450;-46
2021/12/04 06:02:13;;;;;;;;;;;;;;;28.49;55.50;101061.91;5079533;27;65866;-43
2021/12/04 06:04:43;;;;;;;;;;;;;;;28.52;55.48;101067.75;5079917;27;70649;-45
2021/12/04 06:07:14;;;;;;;;;;;;;;;28.56;55.64;101056.56;5078833;27;66063;-47
2021/12/04 06:09:44;;;;;;;;;;;;;;;28.58;55.35;101054.47;5073946;27;69870;-45
2021/12/04 06:12:14;;;;;;;;;;;;;;;28.60;55.88;101044.31;5079380;27;66671;-44
2021/12/04 06:14:46;;;;;;;;;;;;;;;28.61;55.87;101038.75;5075685;27;69740;-44
2021/12/04 06:17:20;;;;;;;;;;;;;;;28.63;55.85;101035.81;5063182;27;65484;-44
2021/12/04 06:22:42;;;;;;;;;;;;;;;28.67;56.45;101026.31;5079000;27;66115;-43
2021/12/04 06:25:15;;;;;;;;;;;;;;;28.69;56.67;101024.22;5078320;27;69854;-44
2021/12/04 06:27:45;;;;;;;;;;;;;;;28.45;56.37;100990.50;5079877;27;65980;-45
2021/12/04 06:30:16;;;;;;;;;;;;;;;28.72;56.59;101024.66;5077875;27;69011;-43
2021/12/04 06:32:48;;;;;;;;;;;;;;;28.73;56.90;101014.69;5060967;28;65444;-43
2021/12/04 06:35:20;;;;;;;;;;;;;;;28.75;56.60;101012.59;5080047;27;69003;-44
2021/12/04 06:37:51;;;;;;;;;;;;;;;28.79;57.19;101013.03;5078788;27;66599;-43
2021/12/04 06:40:26;;;;;;;;;;;;;;;28.80;56.83;101004.72;5077595;27;70476;-43
2021/12/04 06:42:57;;;;;;;;;;;;;;;28.82;57.11;101005.38;5078502;27;66440;-43
2021/12/04 06:45:29;;;;;;;;;;;;;;;28.85;57.34;100998.72;5079746;27;70013;-44
2021/12/04 06:48:04;;;;;;;;;;;;;;;28.87;57.32;100994.78;5078527;27;66749;-43
2021/12/04 06:50:41;;;;;;;;;;;;;;;28.87;57.21;100993.97;5079419;27;70323;-43
2021/12/04 06:53:41;;;;;;;;;;;;;;;28.89;57.38;100995.44;5079448;27;66346;-44
2021/12/04 06:56:06;;;;;;;;;;;;;;;28.93;57.90;100993.97;5077535;27;70900;-43
2021/12/04 06:58:37;;;;;;;;;;;;;;;28.93;57.70;100988.56;5078023;27;66092;-45
2021/12/04 07:01:13;;;;;;;;;;;;;;;28.95;57.51;100988.38;5077592;27;68980;-44
2021/12/04 07:03:45;;;;;;;;;;;;;;;28.96;57.86;100993.56;5081815;27;66103;-44
2021/12/04 07:06:15;;;;;;;;;;;;;;;28.98;57.58;100989.84;5082326;27;70068;-43
2021/12/04 07:08:46;;;;;;;;;;;;;;;28.96;57.46;100985.47;5079225;27;66599;-44
2021/12/04 07:11:16;;;;;;;;;;;;;;;28.99;57.94;100986.09;5082187;27;70963;-43
2021/12/04 07:13:47;;;;;;;;;;;;;;;28.98;57.54;100989.84;5075467;27;67420;-43
2021/12/04 07:16:19;;;;;;;;;;;;;;;29.02;57.95;100985.69;5079270;27;70221;-43
2021/12/04 07:18:50;;;;;;;;;;;;;;;29.02;58.02;100980.28;5078309;27;65633;-44
2021/12/04 07:21:21;;;;;;;;;;;;;;;29.03;57.85;100976.53;5077903;27;70043;-44
2021/12/04 07:23:52;;;;;;;;;;;;;;;29.02;57.97;100975.69;5075376;27;66327;-44
2021/12/04 07:26:22;;;;;;;;;;;;;;;29.03;57.90;100971.13;5075487;27;70193;-43
2021/12/04 07:28:52;;;;;;;;;;;;;;;29.06;57.70;100976.16;5081394;27;66192;-44
2021/12/04 07:31:23;;;;;;;;;;;;;;;29.08;58.16;100979.47;5079423;27;69822;-43
2021/12/04 07:33:53;;;;;;;;;;;;;;;29.08;58.29;100963.28;5076763;27;65881;-46
2021/12/04 07:36:24;;;;;;;;;;;;;;;29.09;57.78;100975.75;5078251;27;69548;-47
2021/12/04 07:38:54;;;;;;;;;;;;;;;29.09;58.12;100981.16;5079787;27;66375;-46
2021/12/04 07:41:24;;;;;;;;;;;;;;;29.10;57.77;100977.41;5077305;27;70053;-44
2021/12/04 07:43:55;;;;;;;;;;;;;;;29.11;57.97;100979.06;5077647;27;66020;-46
2021/12/04 07:46:25;;;;;;;;;;;;;;;29.11;57.59;100979.91;5063677;28;69477;-44
2021/12/04 07:48:56;;;;;;;;;;;;;;;29.11;57.84;100970.97;5070701;27;65753;-46
2021/12/04 07:51:26;;;;;;;;;;;;;;;29.15;57.74;100973.06;5077703;27;69961;-46
2021/12/04 07:53:57;;;;;;;;;;;;;;;29.15;57.55;100975.75;5070552;27;66607;-45
2021/12/04 07:56:28;;;;;;;;;;;;;;;29.16;57.20;100980.09;5075290;27;70574;-47
2021/12/04 07:58:59;;;;;;;;;;;;;;;29.18;57.16;100971.81;5074191;27;65637;-46
2021/12/04 08:01:29;;;;;;;;;;;;;;;29.16;57.33;100971.19;5074868;27;69273;-46
2021/12/04 08:04:00;;;;;;;;;;;;;;;29.16;56.98;100972.00;5077392;27;65761;-46
2021/12/04 08:06:33;;;;;;;;;;;;;;;29.17;56.84;100972.88;5059855;27;70573;-46
2021/12/04 08:09:04;;;;;;;;;;;;;;;29.15;56.60;100964.13;5074274;27;65364;-47
2021/12/04 08:11:34;;;;;;;;;;;;;;;29.15;56.33;100969.53;5075547;27;69835;-47
2021/12/04 08:14:05;;;;;;;;;;;;;;;29.14;55.95;100974.09;5077077;27;67294;-48
2021/12/04 08:16:35;;;;;;;;;;;;;;;29.14;55.83;100967.84;5072254;27;69970;-46
2021/12/04 08:19:06;;;;;;;;;;;;;;;29.15;55.70;100975.75;5073418;27;65608;-47
2021/12/04 08:21:36;;;;;;;;;;;;;;;29.15;55.42;100975.75;5070050;27;70167;-47
2021/12/04 08:24:07;;;;;;;;;;;;;;;29.13;55.37;100977.81;5074873;27;66959;-46
2021/12/04 08:26:38;;;;;;;;;;;;;;;29.12;55.32;100980.75;5076812;27;69859;-47
2021/12/04 08:29:09;;;;;;;;;;;;;;;29.11;48.22;100973.66;5077966;27;66692;-51
2021/12/04 08:31:39;;;;;;;;;;;;;;;29.09;47.76;100976.59;5072660;27;70315;-51
2021/12/04 08:34:10;;;;;;;;;;;;;;;29.12;47.59;100975.34;5075830;27;65786;-52
2021/12/04 08:36:41;;;;;;;;;;;;;;;29.19;47.29;100984.28;5077121;27;70610;-56
2021/12/04 08:39:11;;;;;;;;;;;;;;;29.18;47.92;100985.31;5076099;27;66726;-54
2021/12/04 08:41:42;;;;;;;;;;;;;;;29.20;49.35;100983.25;5075124;27;70643;-52
2021/12/04 08:44:13;;;;;;;;;;;;;;;29.25;49.83;100990.72;5077506;27;65818;-54
2021/12/04 08:46:43;;;;;;;;;;;;;;;29.22;51.17;100993.84;5076901;27;70363;-56
2021/12/04 08:49:15;;;;;;;;;;;;;;;29.22;52.15;100991.97;5075382;27;67250;-52
2021/12/04 08:51:45;;;;;;;;;;;;;;;29.23;53.12;100999.03;5076682;27;70161;-53
2021/12/04 08:54:15;;;;;;;;;;;;;;;29.24;53.55;100995.28;5073292;27;65876;-53
2021/12/04 08:56:46;;;;;;;;;;;;;;;29.20;54.59;100999.47;5078242;27;70020;-56
2021/12/04 08:59:16;;;;;;;;;;;;;;;29.23;54.92;100998.22;5075026;27;66156;-54
2021/12/04 09:01:47;;;;;;;;;;;;;;;29.21;54.86;100998.41;5074743;27;69919;-56
2021/12/04 09:04:19;;;;;;;;;;;;;;;29.23;55.83;101001.75;5076102;27;66400;-52
2021/12/04 09:06:51;;;;;;;;;;;;;;;29.26;55.95;101003.22;5076456;27;69790;-56
2021/12/04 09:09:22;;;;;;;;;;;;;;;29.23;55.55;101004.44;5071665;27;65219;-56
2021/12/04 09:12:14;;;;;;;;;;;;;;;29.22;55.37;101002.75;5075481;27;70129;-54
2021/12/04 09:14:44;;;;;;;;;;;;;;;29.22;54.87;101002.75;5065775;27;66306;-55
2021/12/04 09:17:16;;;;;;;;;;;;;;;29.20;55.35;101004.88;5076243;27;70779;-54
2021/12/04 09:19:48;;;;;;;;;;;;;;;29.17;56.12;101008.81;5078887;27;65315;-55
2021/12/04 09:22:28;;;;;;;;;;;;;;;29.15;54.87;101010.03;5075952;27;69391;-56
2021/12/04 09:25:06;;;;;;;;;;;;;;;29.13;55.22;101014.81;5076103;27;65556;-55
2021/12/04 09:32:52;;;;;;;;;;;;;;;29.13;56.03;101020.22;5076570;27;67194;-56
2021/12/04 10:00:53;;;;;;;;;;;;;;;28.81;56.80;101035.28;5074991;27;66927;-55
2021/12/04 10:04:01;;;;;;;;;;;;;;;28.80;56.32;101026.31;5075640;27;69371;-54
2021/12/04 10:18:41;;;;;;;;;;;;;;;28.57;54.60;101042.03;5079285;27;66324;-55
2021/12/04 10:24:35;;;;;;;;;;;;;;;28.61;55.48;101048.69;5041786;28;65892;-54
2021/12/04 10:32:55;;;;;;;;;;;;;;;28.39;54.82;101051.47;5065583;27;70064;-51
2021/12/04 10:35:25;;;;;;;;;;;;;;;28.42;54.70;101055.63;5070891;27;66466;-46
2021/12/04 10:37:58;;;;;;;;;;;;;;;28.48;55.63;101055.69;5072161;27;70079;-46
2021/12/04 10:40:36;;;;;;;;;;;;;;;28.56;56.13;101061.97;5062423;27;66605;-47
2021/12/04 10:43:11;;;;;;;;;;;;;;;28.60;56.73;101069.44;5074321;27;70229;-47
2021/12/04 10:45:46;;;;;;;;;;;;;;;28.63;56.80;101068.22;5086774;27;66901;-46
2021/12/04 10:48:20;;;;;;;;;;;;;;;28.66;57.29;101065.09;5076071;27;69776;-47
2021/12/04 10:53:27;;;;;;;;;;;;;;;28.69;57.00;101078.19;5073738;27;69701;-47
2021/12/04 11:04:38;;;;;;;;;;;;;;;28.73;56.64;101083.00;5072087;27;70228;-47
2021/12/04 11:43:26;;;;;;;;;;;;;;;28.78;52.82;101125.63;5073929;27;70054;-46
2021/12/04 11:48:30;;;;;;;;;;;;;;;28.80;52.34;101134.31;5072359;27;69381;-47
2021/12/04 11:51:02;;;;;;;;;;;;;;;28.79;52.66;101132.66;5076887;27;65769;-45
2021/12/04 11:53:33;;;;;;;;;;;;;;;28.80;52.49;101134.31;5074173;27;69110;-48
2021/12/04 11:56:04;;;;;;;;;;;;;;;28.80;52.89;101145.13;5071228;27;66533;-49
2021/12/04 11:58:41;;;;;;;;;;;;;;;28.79;52.54;101148.03;5070708;27;70494;-48
2021/12/04 12:01:22;;;;;;;;;;;;;;;28.80;52.58;101160.50;5069746;27;65443;-47
2021/12/04 12:03:54;;;;;;;;;;;;;;;28.81;52.37;101156.78;5074391;27;69605;-48
2021/12/04 12:06:29;;;;;;;;;;;;;;;28.81;52.61;101160.31;5075322;27;65627;-50
2021/12/04 12:09:01;;;;;;;;;;;;;;;28.80;52.53;101161.31;5073488;27;70804;-46
2021/12/04 12:11:32;;;;;;;;;;;;;;;28.79;52.88;101170.47;5073737;27;66671;-48
2021/12/04 12:14:10;;;;;;;;;;;;;;;28.81;52.61;101165.72;5074636;27;70915;-45
2021/12/04 12:16:45;;;;;;;;;;;;;;;28.79;53.74;101173.16;5076745;27;66123;-46
2021/12/04 12:19:30;;;;;;;;;;;;;;;28.78;53.17;101168.81;5075956;27;69685;-48
2021/12/04 12:22:15;;;;;;;;;;;;;;;28.76;53.59;101176.25;5073500;27;65850;-48
2021/12/04 12:33:07;;;;;;;;;;;;;;;28.73;51.97;101200.97;5071512;27;65233;-45
2021/12/04 12:38:31;;;;;;;;;;;;;;;28.72;51.86;101212.78;5076410;27;66306;-46
2021/12/04 12:41:04;;;;;;;;;;;;;;;28.72;51.96;101213.63;5077451;27;69568;-46
2021/12/04 12:43:47;;;;;;;;;;;;;;;28.74;52.00;101216.13;5043737;27;65364;-46
2021/12/04 12:46:18;;;;;;;;;;;;;;;28.75;51.89;101223.16;5075796;27;69337;-45
2021/12/04 12:48:53;;;;;;;;;;;;;;;28.74;52.38;101225.03;5076894;27;67230;-46
2021/12/04 12:51:26;;;;;;;;;;;;;;;28.74;52.31;101240.41;5077285;28;69988;-48
2021/12/04 12:53:59;;;;;;;;;;;;;;;28.74;52.00;101240.41;5076918;27;66650;-47
2021/12/04 12:56:30;;;;;;;;;;;;;;;28.74;51.95;101243.13;5061517;28;69161;-47
2021/12/04 12:59:13;;;;;;;;;;;;;;;28.65;51.30;101244.31;5076468;27;66811;-46
2021/12/04 13:13:37;;;;;;;;;;;;;;;28.17;49.34;101244.09;5070925;28;69338;-42
2021/12/04 13:16:30;;;;;;;;;;;;;;;27.94;49.39;101250.47;5077438;27;65901;-50
2021/12/04 13:19:13;;;;;;;;;;;;;;;27.75;49.49;101243.84;5076679;27;70147;-49
2021/12/04 13:21:56;;;;;;;;;;;;;;;27.55;49.97;101243.63;5063959;28;65485;-51
2021/12/04 13:24:37;;;;;;;;;;;;;;;27.42;50.79;101243.44;5078307;27;69824;-49
2021/12/04 13:30:09;;;;;;;;;;;;;;;27.16;51.91;101250.16;5076572;27;69081;-49
2021/12/04 13:32:54;;;;;;;;;;;;;;;27.06;53.06;101254.97;5077159;27;66314;-47
2021/12/04 13:35:45;;;;;;;;;;;;;;;27.11;55.89;101247.16;5074659;27;69977;-46
2021/12/04 13:38:32;;;;;;;;;;;;;;;27.22;57.44;101247.72;5073941;27;65994;-45
2021/12/04 13:41:09;;;;;;;;;;;;;;;27.38;58.19;101244.84;5073002;27;69684;-45
2021/12/04 13:43:41;;;;;;;;;;;;;;;27.54;59.17;101252.72;5059361;27;65200;-45
2021/12/04 13:46:14;;;;;;;;;;;;;;;27.52;59.34;101252.06;5075649;27;69076;-44
2021/12/04 13:49:01;;;;;;;;;;;;;;;27.48;60.52;101242.69;5075063;27;66063;-43
2021/12/04 13:52:01;;;;;;;;;;;;;;;27.13;60.25;101250.47;5071942;27;70028;-43
2021/12/04 13:54:32;;;;;;;;;;;;;;;26.94;60.49;101256.41;5065348;27;65371;-42
2021/12/04 13:57:08;;;;;;;;;;;;;;;26.81;60.37;101250.84;5075452;27;70279;-43
2021/12/04 13:59:40;;;;;;;;;;;;;;;26.73;61.28;101255.28;5063714;27;64384;-44
2021/12/04 14:02:25;;;;;;;;;;;;;;;26.66;60.51;101253.50;5073014;27;70621;-47
2021/12/04 14:05:15;;;;;;;;;;;;;;;26.59;60.81;101255.28;5073539;27;66463;-45
2021/12/04 14:07:55;;;;;;;;;;;;;;;26.51;60.75;101251.63;5069342;27;70050;-45
2021/12/04 14:10:30;;;;;;;;;;;;;;;26.43;60.72;101248.16;5067190;27;65723;-46
2021/12/04 14:13:02;;;;;;;;;;;;;;;26.37;60.50;101247.00;5083140;27;70510;-46
2021/12/04 14:15:33;;;;;;;;;;;;;;;25.99;60.17;101197.75;5070005;27;65424;-46
2021/12/04 14:18:06;;;;;;;;;;;;;;;26.22;60.26;101236.22;5069881;27;69199;-46
2021/12/04 14:20:37;;;;;;;;;;;;;;;26.16;60.46;101236.94;5066638;27;66938;-45
2021/12/04 14:23:09;;;;;;;;;;;;;;;26.14;60.68;101238.97;5068999;27;70721;-44
2021/12/04 14:25:44;;;;;;;;;;;;;;;26.10;60.28;101237.66;5068312;27;66096;-45
2021/12/04 14:28:16;;;;;;;;;;;;;;;26.04;60.24;101241.88;5068977;27;71130;-45
2021/12/04 14:30:57;;;;;;;;;;;;;;;26.03;59.89;101242.09;5068331;27;66021;-46
2021/12/04 14:33:28;;;;;;;;;;;;;;;25.98;60.00;101244.47;5066271;27;71090;-46
2021/12/04 14:36:02;;;;;;;;;;;;;;;25.92;59.64;101245.19;5069629;27;66405;-45
2021/12/04 14:38:33;;;;;;;;;;;;;;;25.89;59.60;101250.91;5067751;27;70072;-46
2021/12/04 14:41:07;;;;;;;;;;;;;;;25.95;62.50;101251.03;5067452;27;67859;-45
2021/12/04 14:43:39;;;;;;;;;;;;;;;26.04;64.69;101260.69;5073612;27;69985;-46
2021/12/04 14:46:13;;;;;;;;;;;;;;;26.16;66.02;101257.59;5070920;27;66338;-46
2021/12/04 14:48:48;;;;;;;;;;;;;;;26.24;67.45;101258.41;5072838;27;70379;-46
2021/12/04 14:51:20;;;;;;;;;;;;;;;26.34;68.69;101257.31;5072711;27;67415;-46
2021/12/04 14:53:53;;;;;;;;;;;;;;;26.40;69.45;101254.72;5071920;27;69177;-47
2021/12/04 14:56:25;;;;;;;;;;;;;;;26.46;70.64;101248.59;5072566;27;66054;-46
2021/12/04 14:58:56;;;;;;;;;;;;;;;26.51;68.26;101250.78;5070754;27;70394;-46
2021/12/04 15:01:33;;;;;;;;;;;;;;;26.50;65.37;101252.66;5073208;27;66735;-46
2021/12/04 15:04:04;;;;;;;;;;;;;;;26.48;62.93;101246.59;5072877;27;69494;-46
2021/12/04 15:06:37;;;;;;;;;;;;;;;26.48;61.38;101235.00;5071451;27;65513;-46
2021/12/04 15:09:10;;;;;;;;;;;;;;;26.46;60.33;101242.41;5075343;27;70059;-47
2021/12/04 15:11:42;;;;;;;;;;;;;;;26.41;59.14;101242.09;5073214;27;66624;-47
2021/12/04 15:14:20;;;;;;;;;;;;;;;26.39;58.37;101244.16;5073085;27;70357;-46
2021/12/04 15:16:54;;;;;;;;;;;;;;;26.35;57.64;101240.16;5073142;27;66228;-45
2021/12/04 15:19:29;;;;;;;;;;;;;;;26.32;57.15;101235.13;5072172;27;68355;-46
2021/12/04 15:22:02;;;;;;;;;;;;;;;26.40;58.22;101227.00;5069017;27;67054;-46
2021/12/04 15:24:34;;;;;;;;;;;;;;;26.47;59.42;101223.41;5074541;27;69911;-46
2021/12/04 15:27:15;;;;;;;;;;;;;;;26.52;59.79;101221.03;5075645;27;65753;-46
2021/12/04 15:29:46;;;;;;;;;;;;;;;26.60;60.08;101222.78;5076013;27;69671;-47
2021/12/04 15:32:21;;;;;;;;;;;;;;;26.66;61.19;101227.47;5073287;28;65422;-47
2021/12/04 15:34:59;;;;;;;;;;;;;;;26.72;61.00;101232.09;5075042;27;69614;-45
2021/12/04 15:37:38;;;;;;;;;;;;;;;26.78;61.41;101216.25;5073042;27;65551;-46
2021/12/04 15:40:23;;;;;;;;;;;;;;;26.77;62.37;101222.63;5075694;27;70244;-46
2021/12/04 15:43:18;;;;;;;;;;;;;;;26.67;62.12;101218.34;5076892;27;66729;-46
2021/12/04 15:51:49;;;;;;;;;;;;;;;26.42;59.29;101203.44;5079618;27;70466;-42
2021/12/04 15:54:24;;;;;;;;;;;;;;;26.39;58.58;101209.19;5062395;28;66731;-44
2021/12/04 15:57:14;;;;;;;;;;;;;;;26.46;59.07;101204.75;5053995;27;70859;-43
2021/12/04 15:59:45;;;;;;;;;;;;;;;26.50;59.97;101211.44;5070428;27;66803;-43
2021/12/04 16:02:20;;;;;;;;;;;;;;;26.53;60.30;101205.72;5072343;27;70636;-43
2021/12/04 16:04:51;;;;;;;;;;;;;;;26.57;60.78;101190.88;5077205;27;65760;-42
2021/12/04 16:07:23;;;;;;;;;;;;;;;26.63;60.84;101200.91;5079070;27;69557;-43
2021/12/04 16:09:53;;;;;;;;;;;;;;;26.68;62.17;101201.19;5076129;27;66047;-44
2021/12/04 16:12:23;;;;;;;;;;;;;;;26.71;63.01;101184.66;5073714;27;70313;-45
2021/12/04 16:14:55;;;;;;;;;;;;;;;26.77;62.35;101182.25;5054480;28;65541;-44
2021/12/04 16:17:26;;;;;;;;;;;;;;;26.72;63.27;101177.44;5077542;27;69328;-44